Tiempo atmosférico en la estación meteorológica de Tarragona, Tarragona (60 m.)



Fecha
DESCASC
Temp. máxima en grados centígrados (hora)
DESCASC
Temp. mínima en grados centígrados (hora)
DESCASC
Temp. media en grados centígrados
DESCASC
Racha de viento máxima en m/sg (hora)
DESCASC
Velocidad máxima media en intervalos de 10 minutos(hora)
DESCASC
Precipitaciones diarias en mm
DESCASC
Precipitaciones de 00:00 a 06:00 en mm
DESCASC
Precipitaciones de 06:00 a 12:00 en mm
DESCASC
Precipitaciones de 12:00 a 18:00 en mm
DESCASC
Precipitaciones de 18:00 a 24:00 en mm
DESCASC
17-09-2020 27.7 (15:30) 18.9 (06:30) 23.3 -- (--) -- (--) 0 0 0 0 0
15-09-2020 28.1 (15:50) 19.4 (07:50) 23.8 -- (--) -- (--) 0 0 0 0 0
14-09-2020 28.6 (13:40) 18.1 (07:30) 23.4 -- (--) -- (--) 0 0 0 0 0
13-09-2020 31.3 (12:00) 19 (00:00) 25.1 -- (--) -- (--) 0 0 0 0 0
12-09-2020 30.6 (13:20) 18.7 (06:10) 24.7 -- (--) -- (--) 0 0 0 0 0
11-09-2020 31 (14:40) 17.5 (00:00) 24.3 -- (--) -- (--) 0 0 0 0 0
10-09-2020 28.4 (15:00) 18.6 (00:00) 23.5 -- (--) -- (--) 2.2 0 0 0 2.2
09-09-2020 25.3 (13:20) 19.7 (07:20) 22.5 -- (--) -- (--) 18 0 0 18 0
08-09-2020 27.7 (14:30) 14.9 (00:00) 21.3 -- (--) -- (--) 0.6 0.4 0.2 0 0
07-09-2020 25.6 (14:40) 16.5 (23:20) 21.1 -- (--) -- (--) 3.8 0 0 0 3.8
06-09-2020 32.1 (14:10) 18.8 (00:00) 25.4 -- (--) -- (--) 0 0 0 0 0
05-09-2020 27.9 (14:50) 19.6 (00:00) 23.8 -- (--) -- (--) 0 0 0 0 0
04-09-2020 28.3 (16:20) 19.2 (00:00) 23.8 -- (--) -- (--) 0 0 0 0 0
03-09-2020 28.4 (11:30) 18.7 (00:00) 23.6 -- (--) -- (--) 0 0 0 0 0
02-09-2020 27.4 (13:00) 18.1 (00:00) 22.8 -- (--) -- (--) 0 0 0 0 0
01-09-2020 27.1 (15:20) 16.4 (00:00) 21.8 -- (--) -- (--) 0 0 0 0 0
31-08-2020 28 (13:40) 14 (00:00) 21 -- (--) -- (--) 0.6 0.6 0 0 0
30-08-2020 29 (16:30) 14.4 (00:00) 21.7 -- (--) -- (--) 0 0 0 0 0
29-08-2020 24.7 (14:20) 17.1 (00:00) 20.9 -- (--) -- (--) 40.8 39.2 1 0.6 0
28-08-2020 30.2 (16:20) 22.4 (00:00) 26.3 -- (--) -- (--) 56.8 0 0 0 56.8
27-08-2020 30.4 (14:50) 23.4 (00:00) 26.9 -- (--) -- (--) 0 0 0 0 0
26-08-2020 30.8 (13:30) 23.8 (00:00) 27.3 -- (--) -- (--) 0 0 0 0 0
25-08-2020 31.3 (14:50) 22.6 (00:00) 26.9 -- (--) -- (--) 0 0 0 0 0
24-08-2020 32.6 (12:50) 19.6 (07:40) 26.1 -- (--) -- (--) 0 0 0 0 0
23-08-2020 32 (12:30) 21.8 (00:00) 26.9 -- (--) -- (--) 0 0 0 0 0
22-08-2020 30.7 (15:00) 23.3 (00:00) 27 -- (--) -- (--) 0 0 0 0 0
21-08-2020 31.5 (13:10) 22.5 (07:40) 27 -- (--) -- (--) 0 0 0 0 0
20-08-2020 31.5 (16:20) 22.9 (00:00) 27.2 -- (--) -- (--) 0 0 0 0 0
19-08-2020 31.2 (15:20) 21.7 (00:00) 26.5 -- (--) -- (--) 0 0 0 0 0

Gráficas

Temp. máximas Temp. mínimas Temp. medias Precipitaciones Rachas de viento máximas Velocidades máximas media en intervalos de 10 minutos

Datos horarios

Fecha y hora oficial Temperatura (ºC) Velocidad del viento (km/h) Dirección del viento Racha (km/h) Dirección de racha Precipitación (mm) Presión (hPa) Tendencia (hPa) Humedad (%)
2020-09-17 23:00:00 24.1 2 Este 5 Este 0 -- -- 86
2020-09-17 22:00:00 24.4 2 Este 6 Nordeste 0 -- -- 85
2020-09-17 21:00:00 24.8 0 Calma 6 Este 0 -- -- 83
2020-09-17 20:00:00 25.4 2 Este 8 Sudeste 0 -- -- 80
2020-09-17 19:00:00 25.8 5 Sur 12 Sudoeste 0 -- -- 77
2020-09-17 18:00:00 26.7 5 Sur 16 Sur 0 -- -- 73
2020-09-17 17:00:00 27 7 Sur 16 Sudeste 0 -- -- 74
2020-09-17 16:00:00 27.1 7 Sudeste 12 Sudeste 0 -- -- 70
2020-09-17 15:00:00 27.1 6 Sur 14 Sudoeste 0 -- -- 71
2020-09-17 14:00:00 25.5 6 Sudeste 13 Sudeste 0 -- -- 77
2020-09-17 13:00:00 25.7 7 Sudeste 13 Sudeste 0 -- -- 76
2020-09-17 12:00:00 25.8 3 Sudoeste 6 Sur 0 -- -- 76
2020-09-17 11:00:00 23.8 0 Calma 7 Noroeste 0 -- -- 79
2020-09-17 10:00:00 22 3 Noroeste 8 Noroeste 0 -- -- 79
2020-09-17 09:00:00 20.8 3 Noroeste 9 Norte 0 -- -- 79
2020-09-17 08:00:00 19.5 5 Noroeste 9 Noroeste 0 -- -- 83
2020-09-17 07:00:00 19 2 Noroeste 7 Noroeste 0 -- -- 82
2020-09-17 06:00:00 19.2 3 Noroeste 7 Noroeste 0 -- -- 81
2020-09-17 05:00:00 19.8 4 Noroeste 8 Noroeste 0 -- -- 82
2020-09-17 04:00:00 20.4 5 Noroeste 9 Noroeste 0 -- -- 84
2020-09-17 03:00:00 20.9 3 Norte 9 Norte 0 -- -- 86
2020-09-17 02:00:00 21.2 6 Noroeste 10 Noroeste 0 -- -- 89
2020-09-17 01:00:00 22 3 Norte 8 Noroeste 0 -- -- 90
2020-09-17 00:00:00 22.4 3 Noroeste 6 Noroeste 0 -- -- 89
2020-09-16 23:00:00 23.2 0 Calma 4 Norte 0 -- -- 86
2020-09-16 22:00:00 24 2 Oeste 7 Sudoeste 0 -- -- 83
2020-09-16 21:00:00 24.5 2 Oeste 10 Sudoeste 0 -- -- 82
2020-09-16 20:00:00 25.5 4 Sur 12 Sudeste 0 -- -- 79
2020-09-16 19:00:00 26.2 6 Sur 16 Sur 0 -- -- 76
2020-09-16 18:00:00 26.9 8 Sudoeste 15 Sudoeste 0 -- -- 71
2020-09-16 17:00:00 28.1 8 Sur 17 Sudoeste 0 -- -- 67
2020-09-16 16:00:00 28.3 9 Sudeste 19 Sudoeste 0 -- -- 69
2020-09-16 15:00:00 27.8 8 Sur 19 Sudeste 0 -- -- 71
2020-09-16 14:00:00 27.9 8 Sudeste 17 Sudeste 0 -- -- 71
2020-09-16 13:00:00 27.7 8 Sudeste 14 Este 0 -- -- 72
2020-09-16 12:00:00 27.2 7 Sudeste 12 Sudeste 0 -- -- 73
2020-09-16 11:00:00 27.1 4 Sur 10 Sudoeste 0 -- -- 72
2020-09-16 10:00:00 25 4 Noroeste 8 Noroeste 0 -- -- 79
2020-09-16 09:00:00 21.7 2 Noroeste 10 Noroeste 0 -- -- 90
2020-09-16 08:00:00 20.1 0 Calma 7 Norte 0 -- -- 89
2020-09-16 07:00:00 20.3 4 Noroeste 9 Noroeste 0 -- -- 90
2020-09-16 06:00:00 20.5 6 Noroeste 10 Noroeste 0 -- -- 93
2020-09-16 05:00:00 20.8 0 Calma 5 Noroeste 0 -- -- 92
2020-09-16 04:00:00 21.2 4 Noroeste 7 Noroeste 0 -- -- 92
2020-09-16 03:00:00 21.5 3 Noroeste 5 Noroeste 0 -- -- 92
2020-09-16 02:00:00 22.1 0 Calma 4 Noroeste 0 -- -- 90
2020-09-16 01:00:00 22.8 2 Noroeste 8 Noroeste 0 -- -- 88
2020-09-16 00:00:00 23.3 4 Noroeste 8 Noroeste 0 -- -- 87
2020-09-15 23:00:00 24 0 Calma 7 Oeste 0 -- -- 84
2020-09-15 22:00:00 24.6 0 Calma 8 Sudoeste 0 -- -- 82
2020-09-15 21:00:00 25.2 5 Sudoeste 13 Sudoeste 0 -- -- 79
2020-09-15 20:00:00 25.5 5 Sudoeste 13 Sudoeste 0 -- -- 75
2020-09-15 19:00:00 26.3 5 Sudoeste 16 Sudeste 0 -- -- 72
2020-09-15 18:00:00 27.2 8 Oeste 18 Sudoeste 0 -- -- 69
2020-09-15 17:00:00 27.6 8 Sur 20 Sudoeste 0 -- -- 71
2020-09-15 16:00:00 27.8 10 Sudeste 20 Sudeste 0 -- -- 70
2020-09-15 15:00:00 27.6 11 Sudeste 17 Este 0 -- -- 71
2020-09-15 14:00:00 27.4 11 Sudeste 20 Sudeste 0 -- -- 71
2020-09-15 13:00:00 27 9 Sudeste 16 Sudeste 0 -- -- 73
2020-09-15 12:00:00 26.2 6 Sudeste 13 Sudeste 0 -- -- 74
2020-09-15 11:00:00 25.9 4 Sur 10 Sur 0 -- -- 73
2020-09-15 10:00:00 24.4 2 Oeste 8 Noroeste 0 -- -- 77
2020-09-15 09:00:00 21.5 4 Noroeste 11 Noroeste 0 -- -- 84
2020-09-15 08:00:00 19.4 4 Noroeste 11 Norte 0 -- -- 90
2020-09-15 07:00:00 20 0 Calma 4 Noroeste 0 -- -- 94
2020-09-15 06:00:00 19.8 0 Calma 5 Este 0 -- -- 93
2020-09-15 05:00:00 19.7 2 Noroeste 6 Noroeste 0 -- -- 92
2020-09-15 04:00:00 20.1 4 Noroeste 8 Noroeste 0 -- -- 90
2020-09-15 03:00:00 21 0 Calma 9 Norte 0 -- -- 90
2020-09-15 02:00:00 21 5 Norte 11 Norte 0 -- -- 91
2020-09-15 01:00:00 21.3 4 Noroeste 6 Noroeste 0 -- -- 91
2020-09-15 00:00:00 22 0 Calma 5 Nordeste 0 -- -- 90
2020-09-14 23:00:00 22.7 0 Calma 5 Este 0 -- -- 88
2020-09-14 22:00:00 23.5 2 Nordeste 7 Este 0 -- -- 85
2020-09-14 21:00:00 24.4 3 Sudeste 9 Sudeste 0 -- -- 81
2020-09-14 20:00:00 25.2 5 Sudeste 9 Sudeste 0 -- -- 79
2020-09-14 19:00:00 25.8 5 Sudeste 13 Sudeste 0 -- -- 73
2020-09-14 18:00:00 26.7 6 Sudeste 17 Sudeste 0 -- -- 71
2020-09-14 17:00:00 27.7 9 Sudeste 18 Este 0 -- -- 67
2020-09-14 16:00:00 28.3 10 Sudeste 19 Sudeste 0 -- -- 63
2020-09-14 15:00:00 28.1 8 Sur 18 Sudeste 0 -- -- 62
2020-09-14 14:00:00 28.5 10 Sudeste 15 Sudeste 0 -- -- 54
2020-09-14 13:00:00 28.1 8 Sudeste 13 Sudeste 0 -- -- 60
2020-09-14 12:00:00 28 7 Sudeste 12 Sudeste 0 -- -- 63
2020-09-14 11:00:00 27.5 5 Sudeste 9 Sudeste 0 -- -- 59
2020-09-14 10:00:00 25.9 4 Noroeste 10 Noroeste 0 -- -- 58
2020-09-14 09:00:00 21.6 0 Calma 9 Noroeste 0 -- -- 68
2020-09-14 08:00:00 18.3 0 Calma 5 Norte 0 -- -- 81
2020-09-14 07:00:00 18.4 0 Calma 8 Norte 0 -- -- 87
2020-09-14 06:00:00 18.9 0 Calma 4 Norte 0 -- -- 92
2020-09-14 05:00:00 19.2 3 Noroeste 4 Noroeste 0 -- -- 91
2020-09-14 04:00:00 19.4 5 Noroeste 9 Noroeste 0 -- -- 91
2020-09-14 03:00:00 19.8 4 Noroeste 5 Noroeste 0 -- -- 87
2020-09-14 02:00:00 20.4 3 Noroeste 5 Noroeste 0 -- -- 87
2020-09-14 01:00:00 21.1 3 Este 4 Este 0 -- -- 88
2020-09-14 00:00:00 22 0 Calma 4 Noroeste 0 -- -- 86
2020-09-13 23:00:00 23 0 Calma 6 Nordeste 0 -- -- 83
2020-09-13 22:00:00 23.9 0 Calma 5 Nordeste 0 -- -- 84
2020-09-13 21:00:00 24.7 0 Calma 8 Sudeste 0 -- -- 80
2020-09-13 20:00:00 26.1 4 Sudeste 10 Sudeste 0 -- -- 72
2020-09-13 19:00:00 27 6 Sur 12 Sudeste 0 -- -- 67
2020-09-13 18:00:00 28.2 8 Sudeste 15 Sudeste 0 -- -- 58
2020-09-13 17:00:00 29.2 9 Sudeste 17 Sudeste 0 -- -- 51
2020-09-13 16:00:00 29.4 8 Sudeste 20 Sudeste 0 -- -- 52
2020-09-13 15:00:00 29.7 11 Sur 18 Este 0 -- -- 54
2020-09-13 14:00:00 30.4 9 Sudeste 16 Sudeste 0 -- -- 48
2020-09-13 13:00:00 30.6 7 Sudeste 12 Sudeste 0 -- -- 47
2020-09-13 12:00:00 31.3 4 Sur 9 Este 0 -- -- 41
2020-09-13 11:00:00 29.4 3 Sudoeste 6 Oeste 0 -- -- 46
2020-09-13 10:00:00 26.4 2 Sudoeste 6 Noroeste 0 -- -- 55
2020-09-13 09:00:00 22.4 0 Calma 6 Noroeste 0 -- -- 68
2020-09-13 08:00:00 19.3 0 Calma 4 Noroeste 0 -- -- 75
2020-09-13 07:00:00 19.4 0 Calma 9 Norte 0 -- -- 72
2020-09-13 06:00:00 19.1 5 Noroeste 8 Noroeste 0 -- -- 78
2020-09-13 05:00:00 19.4 0 Calma 3 Noroeste 0 -- -- 78
2020-09-13 04:00:00 19.6 0 Calma 7 Noroeste 0 -- -- 88
2020-09-13 03:00:00 19.9 4 Noroeste 6 Noroeste 0 -- -- 89
2020-09-13 02:00:00 20.6 3 Noroeste 4 Noroeste 0 -- -- 88
2020-09-13 01:00:00 21.3 2 Noroeste 6 Norte 0 -- -- 88
2020-09-13 00:00:00 22.3 3 Noroeste 5 Noroeste 0 -- -- 87
2020-09-12 23:00:00 22.9 0 Calma 5 Este 0 -- -- 83
2020-09-12 22:00:00 23.7 0 Calma 7 Este 0 -- -- 79
2020-09-12 21:00:00 24.8 2 Sudoeste 7 Sudoeste 0 -- -- 69
2020-09-12 20:00:00 26.2 4 Sudoeste 11 Oeste 0 -- -- 62
2020-09-12 19:00:00 27.9 5 Oeste 13 Oeste 0 -- -- 47
2020-09-12 18:00:00 29.7 5 Sudoeste 14 Sudeste 0 -- -- 48
2020-09-12 17:00:00 30.1 8 Sudoeste 17 Oeste 0 -- -- 44
2020-09-12 16:00:00 30.2 7 Sudeste 17 Este 0 -- -- 43
2020-09-12 15:00:00 30.2 8 Sudeste 15 Este 0 -- -- 45
2020-09-12 14:00:00 30.3 7 Sudeste 14 Sudoeste 0 -- -- 50
2020-09-12 13:00:00 30.1 6 Sur 12 Oeste 0 -- -- 47
2020-09-12 12:00:00 30.2 5 Sudeste 9 Este 0 -- -- 49
2020-09-12 11:00:00 28 3 Noroeste 9 Oeste 0 -- -- 55
2020-09-12 10:00:00 25.3 4 Noroeste 11 Noroeste 0 -- -- 61
2020-09-12 09:00:00 22.1 2 Noroeste 12 Norte 0 -- -- 66
2020-09-12 08:00:00 19.8 6 Norte 12 Norte 0 -- -- 73
2020-09-12 07:00:00 19.6 5 Noroeste 14 Norte 0 -- -- 76
2020-09-12 06:00:00 18.8 2 Noroeste 7 Noroeste 0 -- -- 87
2020-09-12 05:00:00 19.6 3 Noroeste 6 Noroeste 0 -- -- 85
2020-09-12 04:00:00 19.9 4 Noroeste 6 Norte 0 -- -- 83
2020-09-12 03:00:00 20.9 4 Norte 11 Norte 0 -- -- 79
2020-09-12 02:00:00 20.8 7 Noroeste 13 Noroeste 0 -- -- 83
2020-09-12 01:00:00 21.1 4 Noroeste 8 Noroeste 0 -- -- 87
2020-09-12 00:00:00 21.7 0 Calma 5 Noroeste 0 -- -- 84
2020-09-11 23:00:00 22.4 0 Calma 4 Nordeste 0 -- -- 82
2020-09-11 22:00:00 23.1 0 Calma 5 Nordeste 0 -- -- 79
2020-09-11 21:00:00 24 3 Nordeste 6 Sudoeste 0 -- -- 76
2020-09-11 20:00:00 25.3 5 Sudoeste 11 Sudoeste 0 -- -- 69
2020-09-11 19:00:00 26.5 5 Sudoeste 15 Oeste 0 -- -- 62
2020-09-11 18:00:00 27.8 7 Sudoeste 17 Oeste 0 -- -- 62
2020-09-11 17:00:00 28.4 9 Sur 22 Sudeste 0 -- -- 57
2020-09-11 16:00:00 28.8 14 Sudeste 26 Sudeste 0 -- -- 56
2020-09-11 15:00:00 30.2 9 Sudeste 19 Sudeste 0 -- -- 52
2020-09-11 14:00:00 30.6 7 Sur 15 Sudoeste 0 -- -- 43
2020-09-11 13:00:00 30.2 9 Sudeste 13 Sudeste 0 -- -- 42
2020-09-11 12:00:00 29.8 3 Sudoeste 10 Norte 0 -- -- 45
2020-09-11 11:00:00 26.8 3 Norte 12 Noroeste 0 -- -- 52
2020-09-11 10:00:00 23.7 6 Noroeste 12 Noroeste 0 -- -- 65
2020-09-11 09:00:00 20.6 4 Noroeste 7 Noroeste 0 -- -- 79
2020-09-11 08:00:00 17.5 3 Noroeste 6 Noroeste 0 -- -- 86
2020-09-11 07:00:00 18 0 Calma 7 Noroeste 0 -- -- 84
2020-09-11 06:00:00 18.2 2 Norte 5 Noroeste 0 -- -- 87
2020-09-11 05:00:00 19 0 Calma 6 Norte 0 -- -- 86
2020-09-11 04:00:00 19.8 0 Calma 9 Noroeste 0 -- -- 84
2020-09-11 03:00:00 19.9 5 Noroeste 10 Noroeste 0 -- -- 85
2020-09-11 02:00:00 20.2 4 Noroeste 8 Noroeste 0 -- -- 89
2020-09-11 01:00:00 20.2 2 Noroeste 8 Noroeste 0 -- -- 91
2020-09-11 00:00:00 19.9 2 Noroeste 7 Noroeste 0 -- -- 90
2020-09-10 23:00:00 19.9 0 Calma 6 Norte 0 -- -- 88
2020-09-10 22:00:00 19.9 3 Norte 9 Norte 0.2 -- -- 86
2020-09-10 21:00:00 20.2 6 Noroeste 16 Noroeste 0.2 -- -- 84
2020-09-10 20:00:00 21.5 5 Norte 24 Sudeste 1.8 -- -- 84
2020-09-10 19:00:00 25 7 Este 20 Sudoeste 0 -- -- 57
2020-09-10 18:00:00 26.3 9 Sudoeste 21 Sur 0 -- -- 64
2020-09-10 17:00:00 27 9 Sudoeste 26 Sudoeste 0 -- -- 60
2020-09-10 16:00:00 27.4 8 Sur 26 Este 0 -- -- 58
2020-09-10 15:00:00 28.4 9 Sudoeste 21 Sudoeste 0 -- -- 52
2020-09-10 14:00:00 28 10 Sur 21 Sur 0 -- -- 51
2020-09-10 13:00:00 27.8 8 Sur 22 Sudoeste 0 -- -- 51
2020-09-10 12:00:00 27.3 9 Sudoeste 19 Sudoeste 0 -- -- 55
2020-09-10 11:00:00 26.3 6 Sudoeste 13 Sudoeste 0 -- -- 55
2020-09-10 10:00:00 24.1 3 Noroeste 11 Norte 0 -- -- 65
2020-09-10 09:00:00 21.2 7 Noroeste 12 Norte 0 -- -- 74
2020-09-10 08:00:00 18.6 0 Calma 12 Norte 0 -- -- 82
2020-09-10 07:00:00 19 5 Norte 11 Norte 0 -- -- 81
2020-09-10 06:00:00 19 5 Norte 12 Norte 0 -- -- 82
2020-09-10 05:00:00 18.9 3 Nordeste 11 Noroeste 0 -- -- 82
2020-09-10 04:00:00 18.9 5 Noroeste 11 Noroeste 0 -- -- 83
2020-09-10 03:00:00 18.8 3 Nordeste 13 Norte 0 -- -- 84
2020-09-10 02:00:00 19 4 Norte 10 Norte 0 -- -- 83
2020-09-10 01:00:00 19.6 5 Norte 11 Norte 0 -- -- 82
2020-09-10 00:00:00 19.7 4 Norte 11 Norte 0 -- -- 85
2020-09-09 23:00:00 19.7 4 Noroeste 8 Noroeste 0 -- -- 87
2020-09-09 22:00:00 19.9 0 Calma 10 Nordeste 0 -- -- 84
2020-09-09 21:00:00 20.2 5 Norte 13 Norte 0 -- -- 85
2020-09-09 20:00:00 20.8 5 Norte 13 Norte 0 -- -- 83
2020-09-09 19:00:00 21.5 4 Nordeste 14 Norte 0 -- -- 81
2020-09-09 18:00:00 22.5 5 Este 16 Este 0 -- -- 79
2020-09-09 17:00:00 20.9 4 Nordeste 14 Nordeste 0 -- -- 85
2020-09-09 16:00:00 21.3 2 Nordeste 6 Este 2.2 -- -- 85
2020-09-09 15:00:00 20.2 4 Sudeste 17 Noroeste 14.2 -- -- 87
2020-09-09 14:00:00 23.3 6 Norte 26 Este 1.6 -- -- 72
2020-09-09 13:00:00 24.9 5 Este 18 Este 0 -- -- 61
2020-09-09 12:00:00 23.1 6 Nordeste 15 Nordeste 0 -- -- 67
2020-09-09 11:00:00 23 5 Nordeste 14 Nordeste 0 -- -- 67
2020-09-09 10:00:00 22.9 2 Norte 13 Este 0 -- -- 67
2020-09-09 09:00:00 20.8 4 Norte 10 Nordeste 0 -- -- 72
2020-09-09 08:00:00 19.7 3 Norte 10 Nordeste 0 -- -- 75
2020-09-09 07:00:00 19.8 3 Norte 11 Noroeste 0 -- -- 79
2020-09-09 06:00:00 20.3 3 Norte 13 Este 0 -- -- 78
2020-09-09 05:00:00 20.5 5 Este 23 Sudeste 0 -- -- 70
2020-09-09 04:00:00 20.7 3 Nordeste 12 Noroeste 0 -- -- 66
2020-09-09 03:00:00 20.4 6 Norte 15 Norte 0 -- -- 65
2020-09-09 02:00:00 20.5 6 Norte 11 Noroeste 0 -- -- 63
2020-09-09 01:00:00 20.3 6 Norte 14 Nordeste 0 -- -- 64
2020-09-09 00:00:00 20.2 6 Norte 13 Noroeste 0 -- -- 66
2020-09-08 23:00:00 20.5 5 Norte 11 Norte 0 -- -- 68
2020-09-08 22:00:00 21.5 4 Norte 13 Noroeste 0 -- -- 67
2020-09-08 21:00:00 22.5 5 Norte 12 Norte 0 -- -- 62
2020-09-08 20:00:00 23.9 3 Nordeste 10 Este 0 -- -- 64
2020-09-08 19:00:00 25 4 Este 17 Sudeste 0 -- -- 59
2020-09-08 18:00:00 25.3 8 Sudeste 14 Sudeste 0 -- -- 53
2020-09-08 17:00:00 25.1 8 Sudeste 19 Este 0 -- -- 51
2020-09-08 16:00:00 25.2 9 Sudeste 14 Sudeste 0 -- -- 46
2020-09-08 15:00:00 26.6 7 Sudeste 20 Sudeste 0 -- -- 41
2020-09-08 14:00:00 26.9 9 Sudeste 20 Sudeste 0 -- -- 39
2020-09-08 13:00:00 26.2 9 Noroeste 16 Norte 0 -- -- 44
2020-09-08 12:00:00 23.9 8 Noroeste 19 Noroeste 0.2 -- -- 48
2020-09-08 11:00:00 22.7 8 Norte 19 Nordeste 0 -- -- 53
2020-09-08 10:00:00 20.2 6 Norte 17 Norte 0 -- -- 60
2020-09-08 09:00:00 18.5 9 Norte 23 Noroeste 0 -- -- 66
2020-09-08 08:00:00 16.6 8 Norte 18 Noroeste 0 -- -- 73
2020-09-08 07:00:00 15.8 9 Noroeste 19 Norte 0 -- -- 82
2020-09-08 06:00:00 15.1 6 Noroeste 13 Noroeste 0 -- -- 90
2020-09-08 05:00:00 15.2 4 Norte 12 Norte 0 -- -- 90
2020-09-08 04:00:00 15.3 5 Noroeste 8 Noroeste 0 -- -- 92
2020-09-08 03:00:00 15.7 0 Calma 5 Oeste 0 -- -- 91
2020-09-08 02:00:00 16.4 0 Calma 10 Noroeste 0 -- -- 90
2020-09-08 01:00:00 16.8 4 Noroeste 12 Noroeste 0.4 -- -- 91
2020-09-08 00:00:00 16.6 2 Oeste 28 Este 1 -- -- 90
2020-09-07 23:00:00 17.1 14 Este 42 Este 2.8 -- -- 86
2020-09-07 22:00:00 22.6 10 Sudeste 18 Sur 0 -- -- 64
2020-09-07 21:00:00 22.5 8 Sudeste 18 Sudeste 0 -- -- 64
2020-09-07 20:00:00 22.7 9 Sur 24 Sudoeste 0 -- -- 63
2020-09-07 19:00:00 23.2 9 Sudoeste 21 Sudoeste 0 -- -- 62
2020-09-07 18:00:00 24 11 Sur 31 Sur 0 -- -- 57
2020-09-07 17:00:00 25.1 12 Sur 29 Sudeste 0 -- -- 52
2020-09-07 16:00:00 25.3 12 Sudeste 26 Sudeste 0 -- -- 52
2020-09-07 15:00:00 25.4 9 Sudeste 21 Oeste 0 -- -- 48
2020-09-07 14:00:00 24.5 8 Sudoeste 18 Sudoeste 0 -- -- 44
2020-09-07 13:00:00 23.2 4 Noroeste 16 Oeste 0 -- -- 44
2020-09-07 12:00:00 21.3 3 Oeste 12 Oeste 0 -- -- 48
2020-09-07 11:00:00 20.2 3 Sudoeste 13 Oeste 0 -- -- 52
2020-09-07 10:00:00 19.2 5 Oeste 22 Noroeste 0 -- -- 55
2020-09-07 09:00:00 18.6 6 Noroeste 25 Noroeste 0 -- -- 56
2020-09-07 08:00:00 18.5 8 Noroeste 26 Noroeste 0 -- -- 58
2020-09-07 07:00:00 19.4 7 Noroeste 19 Noroeste 0 -- -- 53
2020-09-07 06:00:00 19.7 6 Noroeste 18 Noroeste 0 -- -- 54
2020-09-07 05:00:00 19.6 5 Noroeste 12 Noroeste 0 -- -- 55
2020-09-07 04:00:00 20.5 3 Noroeste 26 Noroeste 0 -- -- 52
2020-09-07 03:00:00 21.2 11 Noroeste 33 Norte 0 -- -- 49
2020-09-07 02:00:00 22.1 10 Noroeste 24 Noroeste 0 -- -- 47
2020-09-07 01:00:00 23.4 6 Noroeste 19 Noroeste 0 -- -- 44
2020-09-07 00:00:00 24.3 5 Noroeste 15 Oeste 0 -- -- 45
2020-09-06 23:00:00 24.8 5 Oeste 18 Oeste 0 -- -- 50
2020-09-06 22:00:00 24.9 6 Oeste 24 Sudoeste 0 -- -- 75
2020-09-06 21:00:00 25.3 7 Sudoeste 20 Oeste 0 -- -- 78
2020-09-06 20:00:00 25.7 8 Sudoeste 22 Sur 0 -- -- 72
2020-09-06 19:00:00 26.3 12 Sudoeste 26 Sudoeste 0 -- -- 66
2020-09-06 18:00:00 27.5 12 Sudoeste 33 Oeste 0 -- -- 57
2020-09-06 17:00:00 29.3 14 Sudoeste 30 Oeste 0 -- -- 49
2020-09-06 16:00:00 29.7 12 Sudoeste 27 Sudoeste 0 -- -- 49
2020-09-06 15:00:00 29.9 12 Sudoeste 23 Sudoeste 0 -- -- 47
2020-09-06 14:00:00 31.7 6 Oeste 21 Sudoeste 0 -- -- 38
2020-09-06 13:00:00 31 7 Noroeste 22 Oeste 0 -- -- 39
2020-09-06 12:00:00 29.2 6 Oeste 19 Oeste 0 -- -- 43
2020-09-06 11:00:00 27.1 4 Oeste 10 Oeste 0 -- -- 53
2020-09-06 10:00:00 24.5 6 Noroeste 12 Noroeste 0 -- -- 59
2020-09-06 09:00:00 21.6 2 Noroeste 6 Noroeste 0 -- -- 72
2020-09-06 08:00:00 19.2 2 Sudeste 8 Noroeste 0 -- -- 82
2020-09-06 07:00:00 19.2 0 Calma 5 Norte 0 -- -- 85
2020-09-06 06:00:00 19.9 0 Calma 7 Nordeste 0 -- -- 83
2020-09-06 05:00:00 19.8 0 Calma 8 Noroeste 0 -- -- 86
2020-09-06 04:00:00 20.1 0 Calma 10 Noroeste 0 -- -- 87
2020-09-06 03:00:00 20.8 2 Noroeste 8 Noroeste 0 -- -- 86
2020-09-06 02:00:00 21 0 Calma 6 Noroeste 0 -- -- 85
2020-09-06 01:00:00 21.6 3 Noroeste 6 Noroeste 0 -- -- 84
2020-09-06 00:00:00 22.4 0 Calma 4 Noroeste 0 -- -- 81
2020-09-05 23:00:00 23.4 2 Noroeste 8 Oeste 0 -- -- 77
2020-09-05 22:00:00 24 2 Oeste 8 Sur 0 -- -- 74
2020-09-05 21:00:00 24.7 4 Sudoeste 13 Sudoeste 0 -- -- 71
2020-09-05 20:00:00 25.4 6 Sur 17 Sudeste 0 -- -- 69
2020-09-05 19:00:00 26.1 7 Sur 19 Sudeste 0 -- -- 67
2020-09-05 18:00:00 27.4 9 Sudoeste 19 Oeste 0 -- -- 65
2020-09-05 17:00:00 27.6 9 Sudoeste 19 Sudeste 0 -- -- 65
2020-09-05 16:00:00 27.8 10 Sur 24 Sudeste 0 -- -- 62
2020-09-05 15:00:00 27.8 9 Sur 20 Sudoeste 0 -- -- 62
2020-09-05 14:00:00 27.2 10 Sur 23 Sudeste 0 -- -- 64
2020-09-05 13:00:00 27.1 10 Sur 22 Sudeste 0 -- -- 66
2020-09-05 12:00:00 26.8 9 Sudeste 16 Este 0 -- -- 66
2020-09-05 11:00:00 26.3 7 Sudeste 13 Este 0 -- -- 69
2020-09-05 10:00:00 25.6 3 Sur 9 Sudeste 0 -- -- 72
2020-09-05 09:00:00 22 4 Norte 6 Norte 0 -- -- 87
2020-09-05 08:00:00 20 0 Calma 2 Noroeste 0 -- -- 90
2020-09-05 07:00:00 19.9 0 Calma 5 Noroeste 0 -- -- 89
2020-09-05 06:00:00 19.6 0 Calma 2 Este 0 -- -- 90
2020-09-05 05:00:00 19.7 0 Calma 4 Noroeste 0 -- -- 90
2020-09-05 04:00:00 20 3 Noroeste 5 Noroeste 0 -- -- 88
2020-09-05 03:00:00 20.5 0 Calma 3 Noroeste 0 -- -- 87
2020-09-05 02:00:00 21 0 Calma 5 Este 0 -- -- 85
2020-09-05 01:00:00 21.4 0 Calma 4 Noroeste 0 -- -- 83
2020-09-05 00:00:00 22.5 2 Noroeste 5 Oeste 0 -- -- 78
2020-09-04 23:00:00 23.3 2 Oeste 9 Oeste 0 -- -- 74
2020-09-04 22:00:00 23.8 4 Oeste 12 Oeste 0 -- -- 75
2020-09-04 21:00:00 24.5 5 Sudoeste 14 Sudoeste 0 -- -- 72
2020-09-04 20:00:00 25.3 6 Sudoeste 17 Sudoeste 0 -- -- 68
2020-09-04 19:00:00 26.2 9 Sudoeste 19 Sudoeste 0 -- -- 65
2020-09-04 18:00:00 27.6 9 Sudoeste 19 Oeste 0 -- -- 61
2020-09-04 17:00:00 28 9 Sudoeste 24 Sudoeste 0 -- -- 62
2020-09-04 16:00:00 28.2 9 Sur 22 Sudoeste 0 -- -- 63
2020-09-04 15:00:00 28.1 9 Sur 22 Sudeste 0 -- -- 61
2020-09-04 14:00:00 27.8 11 Sudeste 21 Sudeste 0 -- -- 64
2020-09-04 13:00:00 27.8 10 Sudeste 17 Sudeste 0 -- -- 62
2020-09-04 12:00:00 27.6 8 Sudeste 16 Sudeste 0 -- -- 63
2020-09-04 11:00:00 27.3 6 Sudeste 13 Sudeste 0 -- -- 65
2020-09-04 10:00:00 26.3 3 Sudoeste 6 Noroeste 0 -- -- 68
2020-09-04 09:00:00 22.9 4 Noroeste 8 Noroeste 0 -- -- 80
2020-09-04 08:00:00 19.5 4 Noroeste 8 Norte 0 -- -- 90
2020-09-04 07:00:00 19.3 2 Noroeste 5 Noroeste 0 -- -- 89
2020-09-04 06:00:00 19.7 2 Noroeste 5 Oeste 0 -- -- 88
2020-09-04 05:00:00 20.2 3 Noroeste 6 Noroeste 0 -- -- 85
2020-09-04 04:00:00 21 3 Noroeste 7 Noroeste 0 -- -- 82
2020-09-04 03:00:00 20.8 4 Norte 6 Norte 0 -- -- 83
2020-09-04 02:00:00 21 0 Calma 4 Noroeste 0 -- -- 82
2020-09-04 01:00:00 21.2 3 Noroeste 5 Norte 0 -- -- 80
2020-09-04 00:00:00 22.1 3 Noroeste 6 Noroeste 0 -- -- 77
2020-09-03 23:00:00 23.4 0 Calma 8 Oeste 0 -- -- 70
2020-09-03 22:00:00 24.5 4 Sudoeste 14 Sudoeste 0 -- -- 67
2020-09-03 21:00:00 24.9 7 Sudoeste 14 Sudoeste 0 -- -- 69
2020-09-03 20:00:00 25.3 5 Sudoeste 16 Sudoeste 0 -- -- 71
2020-09-03 19:00:00 26.1 6 Sudoeste 22 Sudeste 0 -- -- 69
2020-09-03 18:00:00 26.9 10 Sur 24 Sudoeste 0 -- -- 65
2020-09-03 17:00:00 27.7 10 Sudoeste 22 Sudoeste 0 -- -- 60
2020-09-03 16:00:00 28.1 12 Sudoeste 23 Sudeste 0 -- -- 58
2020-09-03 15:00:00 27.7 12 Sudeste 24 Sudeste 0 -- -- 53
2020-09-03 14:00:00 27.7 13 Sudeste 23 Sudeste 0 -- -- 50
2020-09-03 13:00:00 27.8 11 Sudeste 19 Sudeste 0 -- -- 44
2020-09-03 12:00:00 27.7 7 Sudeste 14 Sudoeste 0 -- -- 49
2020-09-03 11:00:00 27.6 4 Oeste 9 Noroeste 0 -- -- 47
2020-09-03 10:00:00 24.9 5 Noroeste 11 Noroeste 0 -- -- 65
2020-09-03 09:00:00 21.5 7 Noroeste 13 Noroeste 0 -- -- 76
2020-09-03 08:00:00 18.7 2 Oeste 8 Noroeste 0 -- -- 88
2020-09-03 07:00:00 19 3 Noroeste 7 Noroeste 0 -- -- 87
2020-09-03 06:00:00 19.6 3 Noroeste 7 Noroeste 0 -- -- 85
2020-09-03 05:00:00 19.7 4 Noroeste 8 Noroeste 0 -- -- 84
2020-09-03 04:00:00 20.2 3 Norte 8 Noroeste 0 -- -- 82
2020-09-03 03:00:00 20.2 5 Noroeste 8 Norte 0 -- -- 81
2020-09-03 02:00:00 20.5 0 Calma 4 Norte 0 -- -- 81
2020-09-03 01:00:00 21.1 0 Calma 6 Norte 0 -- -- 77
2020-09-03 00:00:00 22.2 3 Noroeste 6 Norte 0 -- -- 73
2020-09-02 23:00:00 23.4 0 Calma 10 Sudoeste 0 -- -- 70
2020-09-02 22:00:00 23.6 5 Sudoeste 15 Oeste 0 -- -- 69
2020-09-02 21:00:00 23.8 6 Sudoeste 19 Sudoeste 0 -- -- 67
2020-09-02 20:00:00 24.5 6 Sudoeste 18 Oeste 0 -- -- 63
2020-09-02 19:00:00 25 8 Sur 24 Sudoeste 0 -- -- 62
2020-09-02 18:00:00 26 12 Sudoeste 22 Sudoeste 0 -- -- 59
2020-09-02 17:00:00 26.4 10 Sur 25 Sudeste 0 -- -- 57
2020-09-02 16:00:00 27 11 Sur 31 Sudeste 0 -- -- 53
2020-09-02 15:00:00 26.9 11 Sudeste 27 Sur 0 -- -- 49
2020-09-02 14:00:00 26.7 12 Sur 24 Sudeste 0 -- -- 43
2020-09-02 13:00:00 27.4 8 Sudoeste 20 Sudoeste 0 -- -- 42
2020-09-02 12:00:00 27.2 5 Sudoeste 13 Sudoeste 0 -- -- 46
2020-09-02 11:00:00 25.9 5 Oeste 18 Oeste 0 -- -- 48
2020-09-02 10:00:00 23.5 5 Noroeste 11 Noroeste 0 -- -- 58
2020-09-02 09:00:00 19.5 5 Noroeste 11 Noroeste 0 -- -- 77
2020-09-02 08:00:00 18.1 6 Noroeste 12 Noroeste 0 -- -- 85
2020-09-02 07:00:00 18.3 4 Noroeste 9 Norte 0 -- -- 82
2020-09-02 06:00:00 19 4 Noroeste 9 Noroeste 0 -- -- 80
2020-09-02 05:00:00 19.7 5 Noroeste 9 Noroeste 0 -- -- 76
2020-09-02 04:00:00 19.8 0 Calma 7 Nordeste 0 -- -- 73
2020-09-02 03:00:00 20.2 0 Calma 10 Este 0 -- -- 71
2020-09-02 02:00:00 20.9 4 Este 17 Sudeste 0 -- -- 70
2020-09-02 01:00:00 21.4 6 Este 20 Sudeste 0 -- -- 68
2020-09-02 00:00:00 22.5 2 Nordeste 6 Sudoeste 0 -- -- 79
2020-09-01 23:00:00 23.7 4 Oeste 16 Sudoeste 0 -- -- 76
2020-09-01 22:00:00 24.4 6 Sudoeste 21 Sudoeste 0 -- -- 75
2020-09-01 21:00:00 24.5 4 Sudoeste 14 Sudoeste 0 -- -- 68
2020-09-01 20:00:00 25 6 Sudoeste 17 Sudoeste 0 -- -- 66
2020-09-01 19:00:00 25.3 6 Sudoeste 15 Sudoeste 0 -- -- 65
2020-09-01 18:00:00 25.6 7 Sudeste 18 Sudeste 0 -- -- 64
2020-09-01 17:00:00 26.2 10 Sudeste 23 Sudeste 0 -- -- 61
2020-09-01 16:00:00 27 9 Sudeste 21 Sudeste 0 -- -- 58
2020-09-01 15:00:00 26.6 7 Sudoeste 19 Sudoeste 0 -- -- 60
2020-09-01 14:00:00 26.4 9 Sudeste 19 Sudeste 0 -- -- 60
2020-09-01 13:00:00 26.3 7 Sudeste 14 Sur 0 -- -- 61
2020-09-01 12:00:00 26.2 8 Sudeste 15 Este 0 -- -- 61
2020-09-01 11:00:00 25.5 5 Este 11 Sudeste 0 -- -- 61
2020-09-01 10:00:00 22.7 2 Noroeste 7 Norte 0 -- -- 64
2020-09-01 09:00:00 19.8 2 Noroeste 8 Norte 0 -- -- 75
2020-09-01 08:00:00 17.4 3 Norte 10 Noroeste 0 -- -- 80
2020-09-01 07:00:00 16.8 4 Noroeste 9 Noroeste 0 -- -- 82
2020-09-01 06:00:00 16.6 4 Noroeste 9 Noroeste 0 -- -- 84
2020-09-01 05:00:00 17.1 8 Noroeste 12 Norte 0 -- -- 82
2020-09-01 04:00:00 17.6 4 Noroeste 14 Noroeste 0 -- -- 80
2020-09-01 03:00:00 17.9 4 Noroeste 5 Noroeste 0 -- -- 80
2020-09-01 02:00:00 18.3 4 Noroeste 6 Noroeste 0 -- -- 79
2020-09-01 01:00:00 19.1 3 Noroeste 5 Noroeste 0 -- -- 76
2020-09-01 00:00:00 19.7 2 Norte 5 Noroeste 0 -- -- 72
2020-08-31 23:00:00 21 0 Calma 11 Oeste 0 -- -- 68
2020-08-31 22:00:00 21.6 3 Oeste 13 Sudoeste 0 -- -- 65
2020-08-31 21:00:00 22 4 Oeste 17 Oeste 0 -- -- 62
2020-08-31 20:00:00 23.1 8 Sudoeste 22 Sudoeste 0 -- -- 56
2020-08-31 19:00:00 24.2 8 Sudoeste 19 Oeste 0 -- -- 52
2020-08-31 18:00:00 25.8 8 Sudoeste 21 Sudoeste 0 -- -- 47
2020-08-31 17:00:00 26.1 11 Sur 28 Sudeste 0 -- -- 44
2020-08-31 16:00:00 26.9 9 Sudoeste 23 Sudoeste 0 -- -- 39
2020-08-31 15:00:00 27.1 10 Sur 23 Sudoeste 0 -- -- 39
2020-08-31 14:00:00 28 9 Sudoeste 21 Sudoeste 0 -- -- 34
2020-08-31 13:00:00 26.9 6 Sudeste 13 Oeste 0 -- -- 37
2020-08-31 12:00:00 25.3 4 Noroeste 12 Noroeste 0 -- -- 40
2020-08-31 11:00:00 23.5 5 Oeste 14 Norte 0 -- -- 49
2020-08-31 10:00:00 20.8 5 Noroeste 14 Noroeste 0 -- -- 56
2020-08-31 09:00:00 18 6 Noroeste 15 Noroeste 0 -- -- 63
2020-08-31 08:00:00 14.4 4 Noroeste 10 Noroeste 0 -- -- 76
2020-08-31 07:00:00 14.1 3 Noroeste 8 Noroeste 0 -- -- 80
2020-08-31 06:00:00 14.6 3 Noroeste 10 Noroeste 0 -- -- 79
2020-08-31 05:00:00 15.3 4 Noroeste 9 Noroeste 0 -- -- 84
2020-08-31 04:00:00 16 0 Calma 9 Noroeste 0 -- -- 78
2020-08-31 03:00:00 17.8 4 Noroeste 16 Noroeste 0.2 -- -- 83
2020-08-31 02:00:00 18.7 5 Noroeste 15 Noroeste 0.4 -- -- 83
2020-08-31 01:00:00 20.1 6 Este 18 Este 0 -- -- 67
2020-08-31 00:00:00 20.8 4 Norte 16 Noroeste 0 -- -- 66
2020-08-30 23:00:00 21.1 8 Noroeste 19 Norte 0 -- -- 59
2020-08-30 22:00:00 21.6 4 Noroeste 20 Noroeste 0 -- -- 51
2020-08-30 21:00:00 22.8 4 Noroeste 17 Noroeste 0 -- -- 44
2020-08-30 20:00:00 24.8 6 Noroeste 23 Noroeste 0 -- -- 37
2020-08-30 19:00:00 26.6 4 Noroeste 19 Noroeste 0 -- -- 35
2020-08-30 18:00:00 28 7 Oeste 21 Sudeste 0 -- -- 32
2020-08-30 17:00:00 28.6 7 Sudoeste 23 Sur 0 -- -- 31
2020-08-30 16:00:00 28.6 7 Oeste 23 Sudoeste 0 -- -- 32
2020-08-30 15:00:00 28.1 6 Oeste 18 Sudoeste 0 -- -- 33
2020-08-30 14:00:00 27.3 7 Oeste 22 Noroeste 0 -- -- 35
2020-08-30 13:00:00 26.4 7 Noroeste 22 Noroeste 0 -- -- 37
2020-08-30 12:00:00 25 7 Noroeste 20 Noroeste 0 -- -- 41
2020-08-30 11:00:00 22.9 5 Oeste 15 Oeste 0 -- -- 46
2020-08-30 10:00:00 20.7 3 Noroeste 10 Noroeste 0 -- -- 54
2020-08-30 09:00:00 18.1 6 Noroeste 14 Noroeste 0 -- -- 60
2020-08-30 08:00:00 14.5 0 Calma 8 Noroeste 0 -- -- 75
2020-08-30 07:00:00 15.1 3 Noroeste 12 Norte 0 -- -- 73
2020-08-30 06:00:00 15.6 3 Noroeste 13 Norte 0 -- -- 72
2020-08-30 05:00:00 15.8 0 Calma 15 Norte 0 -- -- 73
2020-08-30 04:00:00 16.7 9 Noroeste 18 Norte 0 -- -- 69
2020-08-30 03:00:00 17.1 6 Noroeste 22 Noroeste 0 -- -- 68
2020-08-30 02:00:00 17.4 6 Noroeste 17 Noroeste 0 -- -- 67
2020-08-30 01:00:00 17.5 3 Noroeste 12 Noroeste 0 -- -- 81
2020-08-30 00:00:00 18.4 0 Calma 12 Noroeste 0 -- -- 85
2020-08-29 23:00:00 19 0 Calma 5 Nordeste 0 -- -- 83
2020-08-29 22:00:00 19.3 2 Este 6 Nordeste 0 -- -- 80
2020-08-29 21:00:00 20.4 3 Norte 12 Este 0 -- -- 74
2020-08-29 20:00:00 21.6 5 Sudeste 12 Sudeste 0 -- -- 69
2020-08-29 19:00:00 21.9 7 Sudeste 23 Sudeste 0 -- -- 65
2020-08-29 18:00:00 22.2 6 Sudeste 22 Este 0 -- -- 62
2020-08-29 17:00:00 21.4 10 Sudeste 20 Este 0.6 -- -- 73
2020-08-29 16:00:00 23.2 4 Sur 19 Sudeste 0 -- -- 56
2020-08-29 15:00:00 23.4 10 Sudeste 18 Sudeste 0 -- -- 53
2020-08-29 14:00:00 24.1 5 Este 12 Sudeste 0 -- -- 49
2020-08-29 13:00:00 22 2 Este 13 Noroeste 0 -- -- 59
2020-08-29 12:00:00 20.2 6 Noroeste 16 Noroeste 0 -- -- 66
2020-08-29 11:00:00 18.7 6 Noroeste 15 Noroeste 0 -- -- 77
2020-08-29 10:00:00 18 0 Calma 8 Nordeste 0.8 -- -- 88
2020-08-29 09:00:00 17.4 3 Norte 12 Oeste 0 -- -- 85
2020-08-29 08:00:00 17.4 0 Calma 5 Noroeste 0.2 -- -- 91
2020-08-29 07:00:00 17.4 0 Calma 10 Noroeste 0 -- -- 92
2020-08-29 06:00:00 17.3 3 Noroeste 9 Noroeste 0 -- -- 92
2020-08-29 05:00:00 17.5 5 Noroeste 9 Noroeste 0 -- -- 94
2020-08-29 04:00:00 17.1 4 Oeste 19 Noroeste 2.4 -- -- 91
2020-08-29 03:00:00 17.8 9 Noroeste 22 Norte 7 -- -- 91
2020-08-29 02:00:00 20.6 4 Noroeste 26 Este 7.6 -- -- 95
2020-08-29 01:00:00 21.1 5 Sudeste 24 Este 22.2 -- -- 94
2020-08-29 00:00:00 22.4 8 Este 23 Sudeste 56.6 -- -- 93
2020-08-28 23:00:00 26.8 8 Sudeste 23 Sudeste 0 -- -- 78
2020-08-28 22:00:00 26.7 5 Sudeste 16 Sudeste 0 -- -- 79
2020-08-28 21:00:00 26.6 5 Sudeste 13 Sudeste 0.2 -- -- 83
2020-08-28 20:00:00 27.5 7 Sudeste 22 Sur 0 -- -- 75
2020-08-28 19:00:00 27.9 9 Sudoeste 18 Oeste 0 -- -- 73
2020-08-28 18:00:00 28.4 13 Sudeste 25 Sudeste 0 -- -- 74
2020-08-28 17:00:00 29.5 13 Sudeste 22 Sudeste 0 -- -- 70
2020-08-28 16:00:00 29.4 15 Sudeste 24 Este 0 -- -- 70
2020-08-28 15:00:00 30.1 11 Sur 24 Sudeste 0 -- -- 66
2020-08-28 14:00:00 29.1 12 Sudeste 23 Sudeste 0 -- -- 70
2020-08-28 13:00:00 29.7 11 Sur 22 Sudeste 0 -- -- 67
2020-08-28 12:00:00 29.1 13 Sudeste 22 Sudeste 0 -- -- 67
2020-08-28 11:00:00 28.3 11 Sudeste 19 Sudeste 0 -- -- 71
2020-08-28 10:00:00 26.8 6 Este 13 Sudeste 0 -- -- 79
2020-08-28 09:00:00 26.1 4 Este 13 Este 0 -- -- 83
2020-08-28 08:00:00 24.7 2 Este 7 Este 0 -- -- 88
2020-08-28 07:00:00 24.1 3 Este 6 Este 0 -- -- 89
2020-08-28 06:00:00 24.1 3 Este 6 Sudeste 0 -- -- 88
2020-08-28 05:00:00 24.4 2 Este 5 Este 0 -- -- 88
2020-08-28 04:00:00 24.5 3 Este 6 Este 0 -- -- 87
2020-08-28 03:00:00 24.7 2 Este 6 Este 0 -- -- 86
2020-08-28 02:00:00 25.3 4 Este 6 Este 0 -- -- 85
2020-08-28 01:00:00 25.9 3 Nordeste 6 Nordeste 0 -- -- 84
2020-08-28 00:00:00 26.6 2 Sudeste 7 Sudeste 0 -- -- 81
2020-08-27 23:00:00 26.8 5 Sudeste 11 Sudeste 0 -- -- 79
2020-08-27 22:00:00 27.1 4 Sur 10 Sudeste 0 -- -- 79
2020-08-27 21:00:00 27.3 6 Sudeste 14 Sudeste 0 -- -- 78
2020-08-27 20:00:00 27.9 6 Sudoeste 16 Sudeste 0 -- -- 76
2020-08-27 19:00:00 28.5 6 Sur 19 Sudeste 0 -- -- 73
2020-08-27 18:00:00 28.9 13 Sudeste 22 Sudeste 0 -- -- 75
2020-08-27 17:00:00 29.6 11 Sudeste 24 Este 0 -- -- 71
2020-08-27 16:00:00 30.4 12 Sur 26 Sudeste 0 -- -- 69
2020-08-27 15:00:00 30.4 11 Sur 22 Sudeste 0 -- -- 66
2020-08-27 14:00:00 29.8 13 Sur 24 Sudeste 0 -- -- 69
2020-08-27 13:00:00 28.7 10 Sudeste 17 Este 0 -- -- 74
2020-08-27 12:00:00 29.1 9 Sudeste 18 Sudeste 0 -- -- 72
2020-08-27 11:00:00 29.2 9 Sudeste 14 Sudeste 0 -- -- 69
2020-08-27 10:00:00 28.7 7 Sudeste 13 Sudeste 0 -- -- 74
2020-08-27 09:00:00 26.4 3 Este 7 Este 0 -- -- 84
2020-08-27 08:00:00 23.9 2 Norte 5 Noroeste 0 -- -- 92
2020-08-27 07:00:00 23.5 2 Noroeste 6 Noroeste 0 -- -- 90
2020-08-27 06:00:00 24 0 Calma 5 Noroeste 0 -- -- 90
2020-08-27 05:00:00 24.3 2 Este 6 Nordeste 0 -- -- 89
2020-08-27 04:00:00 24.6 2 Este 6 Este 0 -- -- 88
2020-08-27 03:00:00 25 2 Nordeste 5 Nordeste 0 -- -- 87
2020-08-27 02:00:00 25.6 3 Este 6 Sur 0 -- -- 85
2020-08-27 01:00:00 26.5 4 Sudeste 8 Sudeste 0 -- -- 81
2020-08-27 00:00:00 26.6 4 Sudoeste 8 Oeste 0 -- -- 81
2020-08-26 23:00:00 26.9 3 Sudoeste 10 Sur 0 -- -- 81
2020-08-26 22:00:00 27.1 3 Sudoeste 10 Sudoeste 0 -- -- 80
2020-08-26 21:00:00 27.5 4 Sudoeste 12 Oeste 0 -- -- 78
2020-08-26 20:00:00 28.3 5 Sudoeste 13 Sudeste 0 -- -- 75
2020-08-26 19:00:00 28.8 7 Sur 19 Sudeste 0 -- -- 71
2020-08-26 18:00:00 29.4 9 Sudoeste 21 Este 0 -- -- 70
2020-08-26 17:00:00 29.9 11 Sudeste 26 Este 0 -- -- 68
2020-08-26 16:00:00 30.3 10 Sudeste 27 Sudeste 0 -- -- 65
2020-08-26 15:00:00 30.5 13 Sudeste 24 Sudeste 0 -- -- 64
2020-08-26 14:00:00 30.6 11 Sur 29 Sudeste 0 -- -- 64
2020-08-26 13:00:00 30.7 10 Sur 25 Sudeste 0 -- -- 67
2020-08-26 12:00:00 30 9 Sudeste 20 Sudeste 0 -- -- 69
2020-08-26 11:00:00 29.4 9 Sudeste 16 Este 0 -- -- 71
2020-08-26 10:00:00 28.8 6 Sur 13 Sudeste 0 -- -- 73
2020-08-26 09:00:00 26.1 2 Sudeste 6 Este 0 -- -- 85
2020-08-26 08:00:00 24.5 0 Calma 7 Noroeste 0 -- -- 89
2020-08-26 07:00:00 24.3 2 Oeste 5 Noroeste 0 -- -- 88
2020-08-26 06:00:00 23.8 4 Noroeste 6 Noroeste 0 -- -- 88
2020-08-26 05:00:00 24.2 3 Noroeste 5 Noroeste 0 -- -- 86
2020-08-26 04:00:00 24.6 0 Calma 4 Nordeste 0 -- -- 87
2020-08-26 03:00:00 24.6 0 Calma 4 Este 0 -- -- 86
2020-08-26 02:00:00 25.1 0 Calma 4 Noroeste 0 -- -- 85
2020-08-26 01:00:00 25.9 0 Calma 8 Oeste 0 -- -- 82
2020-08-26 00:00:00 26.3 3 Oeste 11 Oeste 0 -- -- 81
2020-08-25 23:00:00 26.6 4 Sudoeste 12 Sudoeste 0 -- -- 80
2020-08-25 22:00:00 26.9 5 Sudoeste 13 Sudoeste 0 -- -- 79
2020-08-25 21:00:00 27.3 6 Sudoeste 15 Sudoeste 0 -- -- 79
2020-08-25 20:00:00 27.9 6 Sudoeste 22 Sudoeste 0 -- -- 75
2020-08-25 19:00:00 28.9 8 Sudoeste 21 Oeste 0 -- -- 71
2020-08-25 18:00:00 30.1 11 Sudoeste 29 Oeste 0 -- -- 68
2020-08-25 17:00:00 30.7 9 Sudoeste 22 Sudoeste 0 -- -- 62
2020-08-25 16:00:00 30.2 10 Sudeste 22 Sudeste 0 -- -- 71
2020-08-25 15:00:00 31 12 Sur 24 Sudoeste 0 -- -- 67
2020-08-25 14:00:00 30.8 10 Sur 21 Sudoeste 0 -- -- 65
2020-08-25 13:00:00 30.5 10 Sudeste 22 Sudeste 0 -- -- 65
2020-08-25 12:00:00 30.2 8 Sudoeste 20 Sudoeste 0 -- -- 66
2020-08-25 11:00:00 30.1 8 Sudoeste -- -- -- -- -- 65
2020-08-25 10:00:00 -- 6 Oeste 13 Oeste 0 -- -- --
2020-08-25 09:00:00 26.3 3 Noroeste 8 Noroeste 0 -- -- 76
2020-08-25 08:00:00 23.5 0 Calma 6 Noroeste 0 -- -- 84
2020-08-25 07:00:00 23.4 3 Noroeste 6 Noroeste 0 -- -- 82
2020-08-25 06:00:00 22.9 0 Calma 5 Noroeste 0 -- -- 83
2020-08-25 05:00:00 22.8 0 Calma 4 Noroeste 0 -- -- 77
2020-08-25 04:00:00 23.3 2 Noroeste 5 Nordeste 0 -- -- 77
2020-08-25 03:00:00 23.9 3 Norte 8 Noroeste 0 -- -- 75
2020-08-25 02:00:00 23.9 4 Noroeste 9 Noroeste 0 -- -- 73
2020-08-25 01:00:00 23.8 6 Noroeste 10 Noroeste 0 -- -- 75
2020-08-25 00:00:00 24.5 3 Norte 6 Noroeste 0 -- -- 76
2020-08-24 23:00:00 25.3 4 Oeste 9 Sudoeste 0 -- -- 76
2020-08-24 22:00:00 25.5 2 Sudoeste 9 Oeste 0 -- -- 71
2020-08-24 21:00:00 26 4 Sudoeste 13 Oeste 0 -- -- 64
2020-08-24 20:00:00 26.9 7 Sudoeste 17 Oeste 0 -- -- 59
2020-08-24 19:00:00 27.7 8 Sur 22 Oeste 0 -- -- 54
2020-08-24 18:00:00 29.2 10 Sudoeste 25 Sudoeste 0 -- -- 50
2020-08-24 17:00:00 29.5 7 Sur 26 Sudeste 0 -- -- 49
2020-08-24 16:00:00 30 12 Sudeste 24 Sudeste 0 -- -- 47
2020-08-24 15:00:00 31.6 10 Sudoeste 20 Sudeste 0 -- -- 31
2020-08-24 14:00:00 32.2 12 Sudoeste 26 Sudoeste 0 -- -- 33
2020-08-24 13:00:00 32.3 10 Sudoeste 23 Sudoeste 0 -- -- 34
2020-08-24 12:00:00 31.2 5 Norte 18 Noroeste 0 -- -- 36
2020-08-24 11:00:00 29.5 8 Noroeste 23 Noroeste 0 -- -- 39
2020-08-24 10:00:00 26.8 10 Noroeste 22 Noroeste 0 -- -- 46
2020-08-24 09:00:00 23.2 6 Noroeste 18 Noroeste 0 -- -- 56
2020-08-24 08:00:00 19.7 4 Noroeste 10 Noroeste 0 -- -- 67
2020-08-24 07:00:00 20.4 4 Noroeste 13 Noroeste 0 -- -- 65
2020-08-24 06:00:00 21.1 4 Noroeste 19 Noroeste 0 -- -- 58
2020-08-24 05:00:00 21.3 7 Noroeste 18 Noroeste 0 -- -- 58
2020-08-24 04:00:00 22 5 Noroeste 10 Noroeste 0 -- -- 63
2020-08-24 03:00:00 23.1 4 Oeste 9 Oeste 0 -- -- 79
2020-08-24 02:00:00 23.6 0 Calma 6 Noroeste 0 -- -- 82
2020-08-24 01:00:00 24.7 2 Noroeste 10 Oeste 0 -- -- 79
2020-08-24 00:00:00 25.9 2 Oeste 10 Oeste 0 -- -- 76
2020-08-23 23:00:00 26.6 6 Sudoeste 13 Sudoeste 0 -- -- 74
2020-08-23 22:00:00 26.8 3 Sudoeste 13 Sur 0 -- -- 73
2020-08-23 21:00:00 26.9 5 Sudoeste 18 Sudoeste 0 -- -- 71
2020-08-23 20:00:00 27.1 11 Sudoeste 21 Sudeste 0 -- -- 70
2020-08-23 19:00:00 27.7 9 Sudoeste 23 Sudoeste 0 -- -- 68
2020-08-23 18:00:00 28.5 12 Sudoeste 30 Sudoeste 0 -- -- 64
2020-08-23 17:00:00 29.4 12 Sur 32 Sudoeste 0 -- -- 59
2020-08-23 16:00:00 28.3 12 Sur 29 Sudoeste 0 -- -- 62
2020-08-23 15:00:00 30.5 12 Sudoeste 28 Sudoeste 0 -- -- 45
2020-08-23 14:00:00 30.2 13 Sudoeste 27 Sudoeste 0 -- -- 43
2020-08-23 13:00:00 30.8 9 Sur 22 Sudoeste 0 -- -- 38
2020-08-23 12:00:00 31.4 6 Sudoeste 18 Norte 0 -- -- 39
2020-08-23 11:00:00 30 5 Sudoeste 12 Noroeste 0 -- -- 42
2020-08-23 10:00:00 27.8 3 Oeste 12 Noroeste 0 -- -- 44
2020-08-23 09:00:00 25.1 7 Noroeste 19 Noroeste 0 -- -- 52
2020-08-23 08:00:00 22.1 6 Noroeste 17 Noroeste 0 -- -- 60
2020-08-23 07:00:00 21.8 5 Noroeste 12 Noroeste 0 -- -- 62
2020-08-23 06:00:00 22.8 3 Noroeste 11 Oeste 0 -- -- 61
2020-08-23 05:00:00 24.7 3 Oeste 9 Oeste 0 -- -- 72
2020-08-23 04:00:00 26 0 Calma 8 Este 0 -- -- 83
2020-08-23 03:00:00 26.4 4 Sur 10 Sudeste 0 -- -- 82
2020-08-23 02:00:00 26.3 4 Sur 9 Sudeste 0 -- -- 82
2020-08-23 01:00:00 26.4 4 Sudoeste 14 Sudeste 0 -- -- 81
2020-08-23 00:00:00 26.8 6 Sudeste 12 Sudeste 0 -- -- 81
2020-08-22 23:00:00 26.8 4 Sudeste 10 Sur 0 -- -- 81
2020-08-22 22:00:00 26.8 4 Sur 10 Oeste 0 -- -- 80
2020-08-22 21:00:00 27 4 Sur 13 Sudeste 0 -- -- 79
2020-08-22 20:00:00 27.6 5 Sudoeste 15 Sudoeste 0 -- -- 76
2020-08-22 19:00:00 28.2 8 Sur 17 Sudoeste 0 -- -- 73
2020-08-22 18:00:00 29.3 9 Sudeste 22 Este 0 -- -- 68
2020-08-22 17:00:00 29.8 12 Sudeste 22 Sudeste 0 -- -- 64
2020-08-22 16:00:00 30.2 14 Sudeste 23 Sudeste 0 -- -- 64
2020-08-22 15:00:00 30.7 11 Sudeste 24 Este 0 -- -- 64
2020-08-22 14:00:00 30.3 11 Sudeste 23 Sudeste 0 -- -- 68
2020-08-22 13:00:00 30.5 10 Sudeste 23 Sudeste 0 -- -- 66
2020-08-22 12:00:00 30.2 9 Sur 18 Sudeste 0 -- -- 67
2020-08-22 11:00:00 29.9 9 Sudeste 16 Este 0 -- -- 69
2020-08-22 10:00:00 29.5 4 Oeste 12 Noroeste 0 -- -- 68
2020-08-22 09:00:00 26.1 6 Noroeste 12 Norte 0 -- -- 79
2020-08-22 08:00:00 23.9 0 Calma 6 Norte 0 -- -- 89
2020-08-22 07:00:00 23.3 2 Norte 5 Noroeste 0 -- -- 85
2020-08-22 06:00:00 24.1 0 Calma 9 Noroeste 0 -- -- 88
2020-08-22 05:00:00 24.8 3 Norte 7 Noroeste 0 -- -- 88
2020-08-22 04:00:00 25.3 0 Calma 7 Este 0 -- -- 89
2020-08-22 03:00:00 25.5 3 Nordeste 7 Este 0 -- -- 88
2020-08-22 02:00:00 26 0 Calma 6 Este 0 -- -- 87
2020-08-22 01:00:00 26.1 0 Calma 5 Norte 0 -- -- 86
2020-08-22 00:00:00 26.3 3 Sur 5 Sudoeste 0 -- -- 86
2020-08-21 23:00:00 26.5 0 Calma 6 Sur 0 -- -- 81
2020-08-21 22:00:00 27.2 4 Sur 10 Sudeste 0 -- -- 80
2020-08-21 21:00:00 27.6 4 Sudeste 12 Este 0 -- -- 78
2020-08-21 20:00:00 28.4 8 Sudeste 14 Sudeste 0 -- -- 76
2020-08-21 19:00:00 28.8 9 Sudeste 17 Sudeste 0 -- -- 74
2020-08-21 18:00:00 30.3 6 Sur 21 Sudeste 0 -- -- 69
2020-08-21 17:00:00 30.5 10 Sudeste 21 Este 0 -- -- 69
2020-08-21 16:00:00 31.1 10 Sudeste 22 Sudeste 0 -- -- 68
2020-08-21 15:00:00 31.1 13 Sudeste 24 Sudeste 0 -- -- 67
2020-08-21 14:00:00 30.9 14 Sudeste 22 Sudeste 0 -- -- 66
2020-08-21 13:00:00 31.4 10 Sudeste 19 Sudeste 0 -- -- 64
2020-08-21 12:00:00 30.9 8 Este 17 Este 0 -- -- 64
2020-08-21 11:00:00 30.2 10 Sudeste 16 Este 0 -- -- 66
2020-08-21 10:00:00 28.9 5 Sudeste 12 Sudeste 0 -- -- 69
2020-08-21 09:00:00 26.1 3 Norte 12 Norte 0 -- -- 76
2020-08-21 08:00:00 22.8 3 Noroeste 8 Noroeste 0 -- -- 83
2020-08-21 07:00:00 22.6 5 Norte 8 Noroeste 0 -- -- 83
2020-08-21 06:00:00 23 3 Noroeste 6 Noroeste 0 -- -- 82
2020-08-21 05:00:00 23.8 2 Norte 7 Noroeste 0 -- -- 82
2020-08-21 04:00:00 24.6 2 Norte 9 Este 0 -- -- 81
2020-08-21 03:00:00 25.1 3 Este 9 Este 0 -- -- 80
2020-08-21 02:00:00 25.7 3 Este 13 Este 0 -- -- 85
2020-08-21 01:00:00 26.2 4 Este 12 Nordeste 0 -- -- 87
2020-08-21 00:00:00 26.6 6 Este 14 Este 0 -- -- 86
2020-08-20 23:00:00 27.2 7 Sudeste 18 Este 0 -- -- 82
2020-08-20 22:00:00 27.5 9 Sudeste 17 Este 0 -- -- 81
2020-08-20 21:00:00 27.6 10 Sudeste 21 Este 0 -- -- 79
2020-08-20 20:00:00 28.1 12 Sudeste 20 Este 0 -- -- 72
2020-08-20 19:00:00 29 9 Este 19 Este 0 -- -- 72
2020-08-20 18:00:00 30.5 8 Este 17 Sudeste 0 -- -- 67
2020-08-20 17:00:00 31.3 10 Sur 18 Sudeste 0 -- -- 61
2020-08-20 16:00:00 31.2 10 Sudeste 22 Sudeste 0 -- -- 64
2020-08-20 15:00:00 31.2 10 Sudeste 19 Sudeste 0 -- -- 64
2020-08-20 14:00:00 31 10 Sudeste 23 Sudeste 0 -- -- 65
2020-08-20 13:00:00 30.7 13 Sudeste 18 Sudeste 0 -- -- 66
2020-08-20 12:00:00 30.4 12 Sudeste 20 Sudeste 0 -- -- 67
2020-08-20 11:00:00 30.3 8 Este 16 Sudeste 0 -- -- 68
2020-08-20 10:00:00 28.8 6 Sudeste 15 Sudeste 0 -- -- 74
2020-08-20 09:00:00 25.8 4 Este 9 Este 0 -- -- 88
2020-08-20 08:00:00 23.8 2 Este 5 Este 0 -- -- 93
2020-08-20 07:00:00 23 0 Calma 5 Noroeste 0 -- -- 92
2020-08-20 06:00:00 23.1 0 Calma 6 Noroeste 0 -- -- 91
2020-08-20 05:00:00 22.9 4 Noroeste 5 Noroeste 0 -- -- 89
2020-08-20 04:00:00 23.5 0 Calma 4 Este 0 -- -- 89
2020-08-20 03:00:00 23.9 0 Calma 6 Noroeste 0 -- -- 88
2020-08-20 02:00:00 24.4 3 Noroeste 5 Noroeste 0 -- -- 86
2020-08-20 01:00:00 24.9 3 Noroeste 6 Noroeste 0 -- -- 84
2020-08-20 00:00:00 25.9 0 Calma 9 Sudoeste 0 -- -- 81
2020-08-19 23:00:00 26.4 3 Sudoeste 10 Oeste 0 -- -- 80
2020-08-19 22:00:00 26.8 4 Sudoeste 10 Sudoeste 0 -- -- 78
2020-08-19 21:00:00 27.2 5 Sudoeste 13 Oeste 0 -- -- 77
2020-08-19 20:00:00 27.8 6 Sur 16 Sudeste 0 -- -- 76
2020-08-19 19:00:00 28.5 10 Sur 23 Sudeste 0 -- -- 74
2020-08-19 18:00:00 29.4 9 Sudeste 22 Sudeste 0 -- -- 68
2020-08-19 17:00:00 29.9 9 Sur 25 Sudeste 0 -- -- 68
2020-08-19 16:00:00 30.7 10 Sur 21 Sudeste 0 -- -- 64
2020-08-19 15:00:00 30.9 12 Sudoeste 25 Sudeste 0 -- -- 62
2020-08-19 14:00:00 30.3 10 Sudeste 24 Este 0 -- -- 66
2020-08-19 13:00:00 29.9 9 Sur 17 Sudeste 0 -- -- 68
2020-08-19 12:00:00 29.3 8 Sudeste 15 Sudeste 0 -- -- 68
2020-08-19 11:00:00 28.9 8 Sudeste 12 Sudeste 0 -- -- 67
2020-08-19 10:00:00 28.4 5 Sudeste 9 Este 0 -- -- 69
2020-08-19 09:00:00 25.5 4 Noroeste 6 Noroeste 0 -- -- 75
2020-08-19 08:00:00 22.3 0 Calma 6 Noroeste 0 -- -- 88
2020-08-19 07:00:00 22 2 Nordeste 9 Noroeste 0 -- -- 89
2020-08-19 06:00:00 21.7 3 Noroeste 5 Noroeste 0 -- -- 88
2020-08-19 05:00:00 22.2 2 Noroeste 6 Noroeste 0 -- -- 87
2020-08-19 04:00:00 22.7 0 Calma 4 Noroeste 0 -- -- 86
2020-08-19 03:00:00 23.6 2 Este 7 Este 0 -- -- 84
2020-08-19 02:00:00 24.2 2 Noroeste 5 Norte 0 -- -- 82
2020-08-19 01:00:00 25 3 Norte 7 Noroeste 0 -- -- 80
2020-08-19 00:00:00 25.2 2 Oeste 8 Oeste 0 -- -- 80